sensor_id;sensor_type;location;lat;lon;timestamp;temperature;humidity
2465;DHT22;1244;54.326;10.074;2023-06-22T00:01:58;16.40;99.90
2465;DHT22;1244;54.326;10.074;2023-06-22T00:04:23;16.30;99.90
2465;DHT22;1244;54.326;10.074;2023-06-22T00:06:49;16.20;99.90
2465;DHT22;1244;54.326;10.074;2023-06-22T00:09:15;16.20;99.90
2465;DHT22;1244;54.326;10.074;2023-06-22T00:11:40;16.40;99.90
2465;DHT22;1244;54.326;10.074;2023-06-22T00:14:05;16.30;99.90
2465;DHT22;1244;54.326;10.074;2023-06-22T00:16:34;16.30;99.90
2465;DHT22;1244;54.326;10.074;2023-06-22T00:19:00;16.10;99.90
2465;DHT22;1244;54.326;10.074;2023-06-22T00:21:27;16.00;99.90
2465;DHT22;1244;54.326;10.074;2023-06-22T00:23:52;16.00;99.90
2465;DHT22;1244;54.326;10.074;2023-06-22T00:26:18;15.90;99.90
2465;DHT22;1244;54.326;10.074;2023-06-22T00:28:44;15.90;99.90
2465;DHT22;1244;54.326;10.074;2023-06-22T00:31:10;15.90;99.90
2465;DHT22;1244;54.326;10.074;2023-06-22T00:33:35;15.90;99.90
2465;DHT22;1244;54.326;10.074;2023-06-22T00:36:01;15.90;99.90
2465;DHT22;1244;54.326;10.074;2023-06-22T00:38:28;15.90;99.90
2465;DHT22;1244;54.326;10.074;2023-06-22T00:40:54;15.80;99.90
2465;DHT22;1244;54.326;10.074;2023-06-22T00:43:19;15.80;99.90
2465;DHT22;1244;54.326;10.074;2023-06-22T00:45:45;15.90;99.90
2465;DHT22;1244;54.326;10.074;2023-06-22T00:48:12;15.70;99.90
2465;DHT22;1244;54.326;10.074;2023-06-22T00:50:39;15.80;99.90
2465;DHT22;1244;54.326;10.074;2023-06-22T00:53:07;15.60;99.90
2465;DHT22;1244;54.326;10.074;2023-06-22T00:55:46;15.50;99.90
2465;DHT22;1244;54.326;10.074;2023-06-22T00:58:13;15.80;99.90
2465;DHT22;1244;54.326;10.074;2023-06-22T01:00:40;15.70;99.90
2465;DHT22;1244;54.326;10.074;2023-06-22T01:03:06;15.60;99.90
2465;DHT22;1244;54.326;10.074;2023-06-22T01:05:35;15.70;99.90
2465;DHT22;1244;54.326;10.074;2023-06-22T01:08:14;15.60;99.90
2465;DHT22;1244;54.326;10.074;2023-06-22T01:10:55;15.60;99.90
2465;DHT22;1244;54.326;10.074;2023-06-22T01:13:30;15.60;99.90
2465;DHT22;1244;54.326;10.074;2023-06-22T01:16:05;15.70;99.90
2465;DHT22;1244;54.326;10.074;2023-06-22T01:18:35;15.60;99.90
2465;DHT22;1244;54.326;10.074;2023-06-22T01:21:02;15.60;99.90
2465;DHT22;1244;54.326;10.074;2023-06-22T01:23:52;15.60;99.90
2465;DHT22;1244;54.326;10.074;2023-06-22T01:26:25;15.60;99.90
2465;DHT22;1244;54.326;10.074;2023-06-22T01:28:55;15.50;99.90
2465;DHT22;1244;54.326;10.074;2023-06-22T01:31:24;15.40;99.90
2465;DHT22;1244;54.326;10.074;2023-06-22T01:33:54;15.30;99.90
2465;DHT22;1244;54.326;10.074;2023-06-22T01:36:21;15.30;99.90
2465;DHT22;1244;54.326;10.074;2023-06-22T01:38:48;15.30;99.90
2465;DHT22;1244;54.326;10.074;2023-06-22T01:41:15;15.20;99.90
2465;DHT22;1244;54.326;10.074;2023-06-22T01:43:42;15.30;99.90
2465;DHT22;1244;54.326;10.074;2023-06-22T01:46:09;15.20;99.90
2465;DHT22;1244;54.326;10.074;2023-06-22T01:48:35;15.10;99.90
2465;DHT22;1244;54.326;10.074;2023-06-22T01:51:00;15.20;99.90
2465;DHT22;1244;54.326;10.074;2023-06-22T01:53:27;14.90;99.90
2465;DHT22;1244;54.326;10.074;2023-06-22T01:55:52;15.00;99.90
2465;DHT22;1244;54.326;10.074;2023-06-22T01:58:20;14.90;99.90
2465;DHT22;1244;54.326;10.074;2023-06-22T02:00:56;14.90;99.90
2465;DHT22;1244;54.326;10.074;2023-06-22T02:03:27;15.10;99.90
2465;DHT22;1244;54.326;10.074;2023-06-22T02:06:01;15.50;99.90
2465;DHT22;1244;54.326;10.074;2023-06-22T02:08:36;15.50;99.90
2465;DHT22;1244;54.326;10.074;2023-06-22T02:11:03;15.20;99.90
2465;DHT22;1244;54.326;10.074;2023-06-22T02:13:30;14.90;99.90
2465;DHT22;1244;54.326;10.074;2023-06-22T02:15:57;15.00;99.90
2465;DHT22;1244;54.326;10.074;2023-06-22T02:18:23;14.90;99.90
2465;DHT22;1244;54.326;10.074;2023-06-22T02:20:48;15.20;99.90
2465;DHT22;1244;54.326;10.074;2023-06-22T02:23:14;15.10;99.90
2465;DHT22;1244;54.326;10.074;2023-06-22T02:25:39;14.90;99.90
2465;DHT22;1244;54.326;10.074;2023-06-22T02:28:05;14.90;99.90
2465;DHT22;1244;54.326;10.074;2023-06-22T02:30:31;14.70;99.90
2465;DHT22;1244;54.326;10.074;2023-06-22T02:32:57;14.60;99.90
2465;DHT22;1244;54.326;10.074;2023-06-22T02:35:28;14.60;99.90
2465;DHT22;1244;54.326;10.074;2023-06-22T02:38:00;14.70;99.90
2465;DHT22;1244;54.326;10.074;2023-06-22T02:40:27;14.50;99.90
2465;DHT22;1244;54.326;10.074;2023-06-22T02:42:53;14.50;99.90
2465;DHT22;1244;54.326;10.074;2023-06-22T02:45:18;14.40;99.90
2465;DHT22;1244;54.326;10.074;2023-06-22T02:47:44;14.40;99.90
2465;DHT22;1244;54.326;10.074;2023-06-22T02:50:10;14.40;99.90
2465;DHT22;1244;54.326;10.074;2023-06-22T02:52:35;14.40;99.90
2465;DHT22;1244;54.326;10.074;2023-06-22T02:55:01;14.40;99.90
2465;DHT22;1244;54.326;10.074;2023-06-22T02:57:27;14.30;99.90
2465;DHT22;1244;54.326;10.074;2023-06-22T02:59:52;14.20;99.90
2465;DHT22;1244;54.326;10.074;2023-06-22T03:02:18;14.20;99.90
2465;DHT22;1244;54.326;10.074;2023-06-22T03:04:46;14.40;99.90
2465;DHT22;1244;54.326;10.074;2023-06-22T03:07:14;14.40;99.90
2465;DHT22;1244;54.326;10.074;2023-06-22T03:09:40;14.50;99.90
2465;DHT22;1244;54.326;10.074;2023-06-22T03:12:07;14.40;99.90
2465;DHT22;1244;54.326;10.074;2023-06-22T03:14:33;14.40;99.90
2465;DHT22;1244;54.326;10.074;2023-06-22T03:16:58;14.30;99.90
2465;DHT22;1244;54.326;10.074;2023-06-22T03:19:29;14.30;99.90
2465;DHT22;1244;54.326;10.074;2023-06-22T03:21:55;14.30;99.90
2465;DHT22;1244;54.326;10.074;2023-06-22T03:24:20;14.40;99.90
2465;DHT22;1244;54.326;10.074;2023-06-22T03:26:46;14.40;99.90
2465;DHT22;1244;54.326;10.074;2023-06-22T03:29:12;14.40;99.90
2465;DHT22;1244;54.326;10.074;2023-06-22T03:31:38;14.40;99.90
2465;DHT22;1244;54.326;10.074;2023-06-22T03:34:03;14.50;99.90
2465;DHT22;1244;54.326;10.074;2023-06-22T03:36:29;14.50;99.90
2465;DHT22;1244;54.326;10.074;2023-06-22T03:38:55;14.50;99.90
2465;DHT22;1244;54.326;10.074;2023-06-22T03:41:20;14.70;99.90
2465;DHT22;1244;54.326;10.074;2023-06-22T03:43:46;14.70;99.90
2465;DHT22;1244;54.326;10.074;2023-06-22T03:46:11;14.70;99.90
2465;DHT22;1244;54.326;10.074;2023-06-22T03:48:37;14.60;99.90
2465;DHT22;1244;54.326;10.074;2023-06-22T03:51:03;14.70;99.90
2465;DHT22;1244;54.326;10.074;2023-06-22T03:53:29;14.80;99.90
2465;DHT22;1244;54.326;10.074;2023-06-22T03:55:55;14.80;99.90
2465;DHT22;1244;54.326;10.074;2023-06-22T03:58:21;14.70;99.90
2465;DHT22;1244;54.326;10.074;2023-06-22T04:00:48;14.80;99.90
2465;DHT22;1244;54.326;10.074;2023-06-22T04:03:14;14.80;99.90
2465;DHT22;1244;54.326;10.074;2023-06-22T04:05:40;14.90;99.90
2465;DHT22;1244;54.326;10.074;2023-06-22T04:08:06;14.80;99.90
2465;DHT22;1244;54.326;10.074;2023-06-22T04:10:32;14.80;99.90
2465;DHT22;1244;54.326;10.074;2023-06-22T04:12:58;14.90;99.90
2465;DHT22;1244;54.326;10.074;2023-06-22T04:15:23;15.00;99.90
2465;DHT22;1244;54.326;10.074;2023-06-22T04:17:49;15.10;99.90
2465;DHT22;1244;54.326;10.074;2023-06-22T04:20:14;15.00;99.90
2465;DHT22;1244;54.326;10.074;2023-06-22T04:22:40;15.10;99.90
2465;DHT22;1244;54.326;10.074;2023-06-22T04:25:06;15.20;99.90
2465;DHT22;1244;54.326;10.074;2023-06-22T04:27:33;15.10;99.90
2465;DHT22;1244;54.326;10.074;2023-06-22T04:30:04;15.10;99.90
2465;DHT22;1244;54.326;10.074;2023-06-22T04:32:32;15.10;99.90
2465;DHT22;1244;54.326;10.074;2023-06-22T04:34:57;15.20;99.90
2465;DHT22;1244;54.326;10.074;2023-06-22T04:37:23;15.30;99.90
2465;DHT22;1244;54.326;10.074;2023-06-22T04:39:49;15.30;99.90
2465;DHT22;1244;54.326;10.074;2023-06-22T04:42:15;15.30;99.90
2465;DHT22;1244;54.326;10.074;2023-06-22T04:44:41;15.60;99.90
2465;DHT22;1244;54.326;10.074;2023-06-22T04:47:08;15.50;99.90
2465;DHT22;1244;54.326;10.074;2023-06-22T04:49:34;15.70;99.90
2465;DHT22;1244;54.326;10.074;2023-06-22T04:52:06;15.70;99.90
2465;DHT22;1244;54.326;10.074;2023-06-22T04:54:33;15.70;99.90
2465;DHT22;1244;54.326;10.074;2023-06-22T04:57:00;15.80;99.90
2465;DHT22;1244;54.326;10.074;2023-06-22T04:59:27;16.00;99.90
2465;DHT22;1244;54.326;10.074;2023-06-22T05:02:02;16.20;99.90
2465;DHT22;1244;54.326;10.074;2023-06-22T05:04:29;16.20;99.90
2465;DHT22;1244;54.326;10.074;2023-06-22T05:06:58;16.40;99.90
2465;DHT22;1244;54.326;10.074;2023-06-22T05:09:25;16.50;99.90
2465;DHT22;1244;54.326;10.074;2023-06-22T05:11:51;16.50;99.90
2465;DHT22;1244;54.326;10.074;2023-06-22T05:14:17;16.70;99.90
2465;DHT22;1244;54.326;10.074;2023-06-22T05:16:43;16.60;99.90
2465;DHT22;1244;54.326;10.074;2023-06-22T05:19:09;16.70;99.90
2465;DHT22;1244;54.326;10.074;2023-06-22T05:21:35;16.70;99.90
2465;DHT22;1244;54.326;10.074;2023-06-22T05:24:00;17.00;99.90
2465;DHT22;1244;54.326;10.074;2023-06-22T05:26:31;17.10;99.90
2465;DHT22;1244;54.326;10.074;2023-06-22T05:28:57;17.20;99.90
2465;DHT22;1244;54.326;10.074;2023-06-22T05:31:23;17.20;99.90
2465;DHT22;1244;54.326;10.074;2023-06-22T05:33:53;17.20;99.90
2465;DHT22;1244;54.326;10.074;2023-06-22T05:36:19;17.20;99.90
2465;DHT22;1244;54.326;10.074;2023-06-22T05:38:51;17.50;99.90
2465;DHT22;1244;54.326;10.074;2023-06-22T05:41:17;17.60;99.90
2465;DHT22;1244;54.326;10.074;2023-06-22T05:43:43;17.50;99.90
2465;DHT22;1244;54.326;10.074;2023-06-22T05:46:08;17.70;99.90
2465;DHT22;1244;54.326;10.074;2023-06-22T05:48:34;17.70;99.90
2465;DHT22;1244;54.326;10.074;2023-06-22T05:50:59;17.80;99.90
2465;DHT22;1244;54.326;10.074;2023-06-22T05:53:25;18.00;99.90
2465;DHT22;1244;54.326;10.074;2023-06-22T05:55:51;18.10;99.90
2465;DHT22;1244;54.326;10.074;2023-06-22T05:58:16;18.20;99.90
2465;DHT22;1244;54.326;10.074;2023-06-22T06:00:42;18.40;99.90
2465;DHT22;1244;54.326;10.074;2023-06-22T06:03:09;18.40;99.90
2465;DHT22;1244;54.326;10.074;2023-06-22T06:05:35;18.20;99.90
2465;DHT22;1244;54.326;10.074;2023-06-22T06:08:02;18.30;99.90
2465;DHT22;1244;54.326;10.074;2023-06-22T06:10:28;18.60;99.90
2465;DHT22;1244;54.326;10.074;2023-06-22T06:12:55;18.80;99.90
2465;DHT22;1244;54.326;10.074;2023-06-22T06:15:21;18.70;99.90
2465;DHT22;1244;54.326;10.074;2023-06-22T06:17:50;18.80;99.90
2465;DHT22;1244;54.326;10.074;2023-06-22T06:20:21;18.90;99.90
2465;DHT22;1244;54.326;10.074;2023-06-22T06:22:50;18.80;99.90
2465;DHT22;1244;54.326;10.074;2023-06-22T06:25:16;18.90;99.90
2465;DHT22;1244;54.326;10.074;2023-06-22T06:27:44;19.30;99.90
2465;DHT22;1244;54.326;10.074;2023-06-22T06:30:11;19.40;99.90
2465;DHT22;1244;54.326;10.074;2023-06-22T06:32:37;19.40;99.90
2465;DHT22;1244;54.326;10.074;2023-06-22T06:35:05;19.60;99.90
2465;DHT22;1244;54.326;10.074;2023-06-22T06:37:31;19.80;99.90
2465;DHT22;1244;54.326;10.074;2023-06-22T06:39:56;19.80;99.90
2465;DHT22;1244;54.326;10.074;2023-06-22T06:42:22;19.80;99.90
2465;DHT22;1244;54.326;10.074;2023-06-22T06:44:49;19.70;99.90
2465;DHT22;1244;54.326;10.074;2023-06-22T06:47:15;19.80;99.90
2465;DHT22;1244;54.326;10.074;2023-06-22T06:49:42;19.70;99.90
2465;DHT22;1244;54.326;10.074;2023-06-22T06:52:08;19.70;99.90
2465;DHT22;1244;54.326;10.074;2023-06-22T06:54:33;20.10;99.90
2465;DHT22;1244;54.326;10.074;2023-06-22T06:56:59;20.20;99.90
2465;DHT22;1244;54.326;10.074;2023-06-22T06:59:24;20.30;99.90
2465;DHT22;1244;54.326;10.074;2023-06-22T07:01:50;20.50;99.90
2465;DHT22;1244;54.326;10.074;2023-06-22T07:04:15;20.60;99.90
2465;DHT22;1244;54.326;10.074;2023-06-22T07:06:41;20.90;99.90
2465;DHT22;1244;54.326;10.074;2023-06-22T07:09:07;20.70;99.90
2465;DHT22;1244;54.326;10.074;2023-06-22T07:11:33;20.70;99.90
2465;DHT22;1244;54.326;10.074;2023-06-22T07:13:59;20.50;99.90
2465;DHT22;1244;54.326;10.074;2023-06-22T07:16:26;20.60;99.90
2465;DHT22;1244;54.326;10.074;2023-06-22T07:18:53;20.80;99.90
2465;DHT22;1244;54.326;10.074;2023-06-22T07:21:19;20.90;99.90
2465;DHT22;1244;54.326;10.074;2023-06-22T07:23:44;21.00;99.90
2465;DHT22;1244;54.326;10.074;2023-06-22T07:26:10;21.00;99.90
2465;DHT22;1244;54.326;10.074;2023-06-22T07:28:38;21.30;99.90
2465;DHT22;1244;54.326;10.074;2023-06-22T07:31:05;21.50;99.90
2465;DHT22;1244;54.326;10.074;2023-06-22T07:33:31;21.50;99.90
2465;DHT22;1244;54.326;10.074;2023-06-22T07:35:56;21.30;99.90
2465;DHT22;1244;54.326;10.074;2023-06-22T07:38:22;21.00;99.90
2465;DHT22;1244;54.326;10.074;2023-06-22T07:40:48;21.30;99.90
2465;DHT22;1244;54.326;10.074;2023-06-22T07:43:13;21.40;99.90
2465;DHT22;1244;54.326;10.074;2023-06-22T07:45:39;21.50;99.90
2465;DHT22;1244;54.326;10.074;2023-06-22T07:48:06;21.70;99.90
2465;DHT22;1244;54.326;10.074;2023-06-22T07:50:32;21.60;99.90
2465;DHT22;1244;54.326;10.074;2023-06-22T07:52:57;21.80;99.90
2465;DHT22;1244;54.326;10.074;2023-06-22T07:55:23;21.80;99.90
2465;DHT22;1244;54.326;10.074;2023-06-22T07:57:49;21.80;99.90
2465;DHT22;1244;54.326;10.074;2023-06-22T08:00:18;21.80;99.90
2465;DHT22;1244;54.326;10.074;2023-06-22T08:02:46;21.60;99.90
2465;DHT22;1244;54.326;10.074;2023-06-22T08:05:13;21.50;99.90
2465;DHT22;1244;54.326;10.074;2023-06-22T08:07:38;21.40;99.90
2465;DHT22;1244;54.326;10.074;2023-06-22T08:10:10;21.50;99.90
2465;DHT22;1244;54.326;10.074;2023-06-22T08:12:36;21.60;99.90
2465;DHT22;1244;54.326;10.074;2023-06-22T08:15:03;21.70;99.90
2465;DHT22;1244;54.326;10.074;2023-06-22T08:17:29;22.00;99.90
2465;DHT22;1244;54.326;10.074;2023-06-22T08:19:54;22.40;99.90
2465;DHT22;1244;54.326;10.074;2023-06-22T08:22:20;22.60;99.90
2465;DHT22;1244;54.326;10.074;2023-06-22T08:24:45;22.60;99.90
2465;DHT22;1244;54.326;10.074;2023-06-22T08:27:11;22.70;99.90
2465;DHT22;1244;54.326;10.074;2023-06-22T08:29:41;22.80;99.90
2465;DHT22;1244;54.326;10.074;2023-06-22T08:32:09;23.00;99.90
2465;DHT22;1244;54.326;10.074;2023-06-22T08:34:34;23.30;99.90
2465;DHT22;1244;54.326;10.074;2023-06-22T08:37:00;23.40;99.90
2465;DHT22;1244;54.326;10.074;2023-06-22T08:39:26;23.40;99.90
2465;DHT22;1244;54.326;10.074;2023-06-22T08:41:53;23.20;99.90
2465;DHT22;1244;54.326;10.074;2023-06-22T08:44:19;23.20;99.90
2465;DHT22;1244;54.326;10.074;2023-06-22T08:46:45;23.50;99.90
2465;DHT22;1244;54.326;10.074;2023-06-22T08:49:10;23.60;99.90
2465;DHT22;1244;54.326;10.074;2023-06-22T08:51:36;23.30;99.90
2465;DHT22;1244;54.326;10.074;2023-06-22T08:54:02;23.40;99.90
2465;DHT22;1244;54.326;10.074;2023-06-22T08:56:27;23.50;99.90
2465;DHT22;1244;54.326;10.074;2023-06-22T08:58:53;23.50;99.90
2465;DHT22;1244;54.326;10.074;2023-06-22T09:01:18;23.90;99.90
2465;DHT22;1244;54.326;10.074;2023-06-22T09:03:44;24.10;99.90
2465;DHT22;1244;54.326;10.074;2023-06-22T09:06:19;24.10;99.90
2465;DHT22;1244;54.326;10.074;2023-06-22T09:08:45;24.30;99.90
2465;DHT22;1244;54.326;10.074;2023-06-22T09:11:11;24.70;99.90
2465;DHT22;1244;54.326;10.074;2023-06-22T09:13:37;24.60;99.90
2465;DHT22;1244;54.326;10.074;2023-06-22T09:16:02;24.40;99.90
2465;DHT22;1244;54.326;10.074;2023-06-22T09:18:28;24.80;99.90
2465;DHT22;1244;54.326;10.074;2023-06-22T09:20:53;24.90;99.90
2465;DHT22;1244;54.326;10.074;2023-06-22T09:23:19;25.50;99.90
2465;DHT22;1244;54.326;10.074;2023-06-22T09:25:45;25.70;99.90
2465;DHT22;1244;54.326;10.074;2023-06-22T09:28:12;25.80;99.90
2465;DHT22;1244;54.326;10.074;2023-06-22T09:30:38;25.30;99.90
2465;DHT22;1244;54.326;10.074;2023-06-22T09:33:03;25.00;99.90
2465;DHT22;1244;54.326;10.074;2023-06-22T09:35:29;25.40;99.90
2465;DHT22;1244;54.326;10.074;2023-06-22T09:37:54;25.70;99.90
2465;DHT22;1244;54.326;10.074;2023-06-22T09:40:20;25.50;99.90
2465;DHT22;1244;54.326;10.074;2023-06-22T09:42:45;25.80;99.90
2465;DHT22;1244;54.326;10.074;2023-06-22T09:45:11;26.30;99.90
2465;DHT22;1244;54.326;10.074;2023-06-22T09:47:36;26.30;99.90
2465;DHT22;1244;54.326;10.074;2023-06-22T09:50:03;26.20;99.90
2465;DHT22;1244;54.326;10.074;2023-06-22T09:52:28;26.30;99.90
2465;DHT22;1244;54.326;10.074;2023-06-22T09:54:54;26.30;99.90
2465;DHT22;1244;54.326;10.074;2023-06-22T09:57:19;26.60;99.90
2465;DHT22;1244;54.326;10.074;2023-06-22T09:59:45;25.80;99.90
2465;DHT22;1244;54.326;10.074;2023-06-22T10:02:10;25.80;99.90
2465;DHT22;1244;54.326;10.074;2023-06-22T10:04:36;26.20;99.90
2465;DHT22;1244;54.326;10.074;2023-06-22T10:07:02;26.00;99.90
2465;DHT22;1244;54.326;10.074;2023-06-22T10:09:28;26.30;99.90
2465;DHT22;1244;54.326;10.074;2023-06-22T10:11:53;26.80;99.90
2465;DHT22;1244;54.326;10.074;2023-06-22T10:14:19;26.40;99.90
2465;DHT22;1244;54.326;10.074;2023-06-22T10:16:45;26.60;99.90
2465;DHT22;1244;54.326;10.074;2023-06-22T10:19:10;26.60;99.90
2465;DHT22;1244;54.326;10.074;2023-06-22T10:21:36;26.10;99.90
2465;DHT22;1244;54.326;10.074;2023-06-22T10:24:02;26.10;99.90
2465;DHT22;1244;54.326;10.074;2023-06-22T10:26:34;25.80;99.90
2465;DHT22;1244;54.326;10.074;2023-06-22T10:29:00;26.20;99.90
2465;DHT22;1244;54.326;10.074;2023-06-22T10:31:26;26.60;99.90
2465;DHT22;1244;54.326;10.074;2023-06-22T10:33:53;27.20;99.90
2465;DHT22;1244;54.326;10.074;2023-06-22T10:36:19;27.40;99.90
2465;DHT22;1244;54.326;10.074;2023-06-22T10:38:44;27.70;99.90
2465;DHT22;1244;54.326;10.074;2023-06-22T10:41:10;28.00;99.90
2465;DHT22;1244;54.326;10.074;2023-06-22T10:43:36;27.50;99.90
2465;DHT22;1244;54.326;10.074;2023-06-22T10:46:02;27.20;99.90
2465;DHT22;1244;54.326;10.074;2023-06-22T10:48:27;27.20;99.90
2465;DHT22;1244;54.326;10.074;2023-06-22T10:50:53;26.90;99.90
2465;DHT22;1244;54.326;10.074;2023-06-22T10:53:19;26.70;99.90
2465;DHT22;1244;54.326;10.074;2023-06-22T10:55:45;26.50;99.90
2465;DHT22;1244;54.326;10.074;2023-06-22T10:58:11;26.00;99.90
2465;DHT22;1244;54.326;10.074;2023-06-22T11:00:36;26.30;99.90
2465;DHT22;1244;54.326;10.074;2023-06-22T11:03:02;26.80;99.90
2465;DHT22;1244;54.326;10.074;2023-06-22T11:05:27;27.20;99.90
2465;DHT22;1244;54.326;10.074;2023-06-22T11:07:53;27.70;99.90
2465;DHT22;1244;54.326;10.074;2023-06-22T11:10:18;27.60;99.90
2465;DHT22;1244;54.326;10.074;2023-06-22T11:12:44;27.10;99.90
2465;DHT22;1244;54.326;10.074;2023-06-22T11:15:10;27.70;99.90
2465;DHT22;1244;54.326;10.074;2023-06-22T11:17:36;26.70;99.90
2465;DHT22;1244;54.326;10.074;2023-06-22T11:20:04;26.80;99.90
2465;DHT22;1244;54.326;10.074;2023-06-22T11:22:39;27.30;99.90
2465;DHT22;1244;54.326;10.074;2023-06-22T11:25:05;28.00;99.90
2465;DHT22;1244;54.326;10.074;2023-06-22T11:27:31;27.30;99.90
2465;DHT22;1244;54.326;10.074;2023-06-22T11:29:57;27.00;99.90
2465;DHT22;1244;54.326;10.074;2023-06-22T11:32:23;27.00;99.90
2465;DHT22;1244;54.326;10.074;2023-06-22T11:34:48;26.40;99.90
2465;DHT22;1244;54.326;10.074;2023-06-22T11:37:15;26.10;99.90
2465;DHT22;1244;54.326;10.074;2023-06-22T11:39:42;26.00;99.90
2465;DHT22;1244;54.326;10.074;2023-06-22T11:42:07;26.00;99.90
2465;DHT22;1244;54.326;10.074;2023-06-22T11:44:34;27.20;99.90
2465;DHT22;1244;54.326;10.074;2023-06-22T11:46:59;28.00;99.90
2465;DHT22;1244;54.326;10.074;2023-06-22T11:49:26;29.10;99.90
2465;DHT22;1244;54.326;10.074;2023-06-22T11:51:52;29.50;99.90
2465;DHT22;1244;54.326;10.074;2023-06-22T11:54:18;30.20;99.90
2465;DHT22;1244;54.326;10.074;2023-06-22T11:56:44;31.00;99.90
2465;DHT22;1244;54.326;10.074;2023-06-22T11:59:10;30.90;99.20
2465;DHT22;1244;54.326;10.074;2023-06-22T12:01:35;30.50;99.90
2465;DHT22;1244;54.326;10.074;2023-06-22T12:04:01;30.70;99.90
2465;DHT22;1244;54.326;10.074;2023-06-22T12:06:35;31.20;99.70
2465;DHT22;1244;54.326;10.074;2023-06-22T12:09:03;31.20;99.50
2465;DHT22;1244;54.326;10.074;2023-06-22T12:11:29;31.00;99.80
2465;DHT22;1244;54.326;10.074;2023-06-22T12:13:56;29.70;99.00
2465;DHT22;1244;54.326;10.074;2023-06-22T12:16:27;28.80;99.90
2465;DHT22;1244;54.326;10.074;2023-06-22T12:18:53;29.40;99.90
2465;DHT22;1244;54.326;10.074;2023-06-22T12:21:19;29.00;99.90
2465;DHT22;1244;54.326;10.074;2023-06-22T12:23:44;28.20;99.90
2465;DHT22;1244;54.326;10.074;2023-06-22T12:26:10;27.60;99.90
2465;DHT22;1244;54.326;10.074;2023-06-22T12:28:35;28.20;99.90
2465;DHT22;1244;54.326;10.074;2023-06-22T12:31:01;28.90;99.90
2465;DHT22;1244;54.326;10.074;2023-06-22T12:33:26;29.40;99.90
2465;DHT22;1244;54.326;10.074;2023-06-22T12:35:52;30.10;99.90
2465;DHT22;1244;54.326;10.074;2023-06-22T12:38:17;30.30;99.90
2465;DHT22;1244;54.326;10.074;2023-06-22T12:40:43;29.50;99.90
2465;DHT22;1244;54.326;10.074;2023-06-22T12:43:09;29.80;99.60
2465;DHT22;1244;54.326;10.074;2023-06-22T12:45:34;30.10;99.90
2465;DHT22;1244;54.326;10.074;2023-06-22T12:48:00;30.70;99.90
2465;DHT22;1244;54.326;10.074;2023-06-22T12:50:26;31.10;98.90
2465;DHT22;1244;54.326;10.074;2023-06-22T12:52:52;30.60;99.20
2465;DHT22;1244;54.326;10.074;2023-06-22T12:55:18;30.70;98.20
2465;DHT22;1244;54.326;10.074;2023-06-22T12:57:43;30.80;98.20
2465;DHT22;1244;54.326;10.074;2023-06-22T13:00:09;30.40;97.80
2465;DHT22;1244;54.326;10.074;2023-06-22T13:02:35;29.90;97.90
2465;DHT22;1244;54.326;10.074;2023-06-22T13:05:02;30.00;98.80
2465;DHT22;1244;54.326;10.074;2023-06-22T13:07:28;30.20;98.40
2465;DHT22;1244;54.326;10.074;2023-06-22T13:09:53;29.90;99.20
2465;DHT22;1244;54.326;10.074;2023-06-22T13:12:20;29.70;98.80
2465;DHT22;1244;54.326;10.074;2023-06-22T13:14:46;29.60;98.10
2465;DHT22;1244;54.326;10.074;2023-06-22T13:17:12;29.60;99.30
2465;DHT22;1244;54.326;10.074;2023-06-22T13:19:42;29.90;98.80
2465;DHT22;1244;54.326;10.074;2023-06-22T13:22:32;29.60;98.80
2465;DHT22;1244;54.326;10.074;2023-06-22T13:24:59;29.30;99.10
2465;DHT22;1244;54.326;10.074;2023-06-22T13:27:25;29.10;99.30
2465;DHT22;1244;54.326;10.074;2023-06-22T13:29:51;28.70;99.00
2465;DHT22;1244;54.326;10.074;2023-06-22T13:32:16;28.10;99.90
2465;DHT22;1244;54.326;10.074;2023-06-22T13:34:45;28.10;99.90
2465;DHT22;1244;54.326;10.074;2023-06-22T13:37:11;28.40;99.90
2465;DHT22;1244;54.326;10.074;2023-06-22T13:39:36;28.50;99.60
2465;DHT22;1244;54.326;10.074;2023-06-22T13:42:02;29.00;99.90
2465;DHT22;1244;54.326;10.074;2023-06-22T13:44:27;29.10;99.50
2465;DHT22;1244;54.326;10.074;2023-06-22T13:46:55;29.00;99.60
2465;DHT22;1244;54.326;10.074;2023-06-22T13:49:20;28.80;99.40
2465;DHT22;1244;54.326;10.074;2023-06-22T13:51:47;28.60;98.70
2465;DHT22;1244;54.326;10.074;2023-06-22T13:54:13;28.70;99.70
2465;DHT22;1244;54.326;10.074;2023-06-22T13:56:39;29.00;99.40
2465;DHT22;1244;54.326;10.074;2023-06-22T13:59:07;29.10;99.20
2465;DHT22;1244;54.326;10.074;2023-06-22T14:01:35;29.30;98.80
2465;DHT22;1244;54.326;10.074;2023-06-22T14:04:01;29.10;97.90
2465;DHT22;1244;54.326;10.074;2023-06-22T14:06:28;29.00;99.00
2465;DHT22;1244;54.326;10.074;2023-06-22T14:08:53;29.20;98.60
2465;DHT22;1244;54.326;10.074;2023-06-22T14:11:19;29.20;98.30
2465;DHT22;1244;54.326;10.074;2023-06-22T14:13:44;29.10;97.40
2465;DHT22;1244;54.326;10.074;2023-06-22T14:16:10;28.80;97.40
2465;DHT22;1244;54.326;10.074;2023-06-22T14:18:36;28.60;98.20
2465;DHT22;1244;54.326;10.074;2023-06-22T14:21:01;28.80;97.70
2465;DHT22;1244;54.326;10.074;2023-06-22T14:23:27;28.70;99.30
2465;DHT22;1244;54.326;10.074;2023-06-22T14:25:52;28.80;99.60
2465;DHT22;1244;54.326;10.074;2023-06-22T14:28:18;28.90;98.80
2465;DHT22;1244;54.326;10.074;2023-06-22T14:30:44;28.80;99.30
2465;DHT22;1244;54.326;10.074;2023-06-22T14:33:09;28.60;99.70
2465;DHT22;1244;54.326;10.074;2023-06-22T14:35:35;28.70;98.80
2465;DHT22;1244;54.326;10.074;2023-06-22T14:38:00;28.50;99.00
2465;DHT22;1244;54.326;10.074;2023-06-22T14:40:26;28.20;98.80
2465;DHT22;1244;54.326;10.074;2023-06-22T14:42:51;28.00;98.80
2465;DHT22;1244;54.326;10.074;2023-06-22T14:45:17;27.70;97.80
2465;DHT22;1244;54.326;10.074;2023-06-22T14:47:42;27.40;99.40
2465;DHT22;1244;54.326;10.074;2023-06-22T14:50:08;27.40;99.20
2465;DHT22;1244;54.326;10.074;2023-06-22T14:52:34;27.00;99.10
2465;DHT22;1244;54.326;10.074;2023-06-22T14:54:59;26.90;99.90
2465;DHT22;1244;54.326;10.074;2023-06-22T14:57:26;26.70;99.70
2465;DHT22;1244;54.326;10.074;2023-06-22T14:59:51;26.60;99.90
2465;DHT22;1244;54.326;10.074;2023-06-22T15:02:17;26.60;99.90
2465;DHT22;1244;54.326;10.074;2023-06-22T15:04:43;26.70;99.90
2465;DHT22;1244;54.326;10.074;2023-06-22T15:07:08;27.00;99.90
2465;DHT22;1244;54.326;10.074;2023-06-22T15:09:34;27.00;99.90
2465;DHT22;1244;54.326;10.074;2023-06-22T15:11:59;27.10;99.90
2465;DHT22;1244;54.326;10.074;2023-06-22T15:14:27;27.00;99.90
2465;DHT22;1244;54.326;10.074;2023-06-22T15:16:53;27.00;99.90
2465;DHT22;1244;54.326;10.074;2023-06-22T15:19:18;27.10;99.90
2465;DHT22;1244;54.326;10.074;2023-06-22T15:21:44;27.10;99.90
2465;DHT22;1244;54.326;10.074;2023-06-22T15:24:09;27.10;99.90
2465;DHT22;1244;54.326;10.074;2023-06-22T15:26:35;26.80;99.50
2465;DHT22;1244;54.326;10.074;2023-06-22T15:29:00;26.90;99.90
2465;DHT22;1244;54.326;10.074;2023-06-22T15:31:27;26.90;99.60
2465;DHT22;1244;54.326;10.074;2023-06-22T15:33:52;26.80;99.70
2465;DHT22;1244;54.326;10.074;2023-06-22T15:36:18;26.60;99.90
2465;DHT22;1244;54.326;10.074;2023-06-22T15:38:44;26.10;99.30
2465;DHT22;1244;54.326;10.074;2023-06-22T15:41:09;25.80;99.90